Time,TemperatureF,DewpointF,PressureIn,WindDirection,WindDirectionDegrees,WindSpeedMPH,WindSpeedGustMPH,Humidity,HourlyPrecipIn,Conditions,Clouds,dailyrainin,SoftwareType,DateUTC
2013-05-25 00:00:00,79.5,79.5,30.03,East,90,0.0,1.0,100,0.00,,,-99.99,WeatherLink 5.5,2013-05-25 04:00:00,
2013-05-25 00:05:00,79.6,79.6,30.05,East,90,2.0,7.0,100,0.00,,,-99.99,WeatherLink 5.5,2013-05-25 04:05:00,
2013-05-25 00:10:00,79.7,79.7,30.05,West,270,2.0,9.0,100,0.00,,,-99.99,WeatherLink 5.5,2013-05-25 04:10:00,
2013-05-25 00:15:00,79.7,79.7,30.05,West,270,2.0,9.0,100,0.00,,,-99.99,WeatherLink 5.5,2013-05-25 04:15:00,
2013-05-25 00:20:00,79.6,79.6,30.05,North,-999,0.0,0.0,100,0.00,,,-99.99,WeatherLink 5.5,2013-05-25 04:20:00,
2013-05-25 00:30:00,79.4,79.4,30.05,West,270,0.0,1.0,100,0.00,,,-99.99,WeatherLink 5.5,2013-05-25 04:30:00,
2013-05-25 00:40:00,79.4,79.4,30.05,West,270,1.0,4.0,100,0.00,,,-99.99,WeatherLink 5.5,2013-05-25 04:40:00,
2013-05-25 00:45:00,79.2,79.2,30.05,West,270,0.0,3.0,100,0.00,,,-99.99,WeatherLink 5.5,2013-05-25 04:45:00,
2013-05-25 00:50:00,78.5,78.2,30.05,North,-999,0.0,0.0,99,0.00,,,-99.99,WeatherLink 5.5,2013-05-25 04:50:00,
2013-05-25 01:00:00,78.1,72.5,30.03,North,-999,0.0,0.0,83,0.00,,,-99.99,WeatherLink 5.5,2013-05-25 05:00:00,
2013-05-25 01:05:00,78.1,72.2,30.04,North,-999,0.0,0.0,82,0.00,,,-99.99,WeatherLink 5.5,2013-05-25 05:05:00,
2013-05-25 01:15:00,77.8,-99.9,30.05,North,-999,0.0,0.0,-999,0.00,,,-99.99,WeatherLink 5.5,2013-05-25 05:15:00,
2013-05-25 01:25:00,77.7,-99.9,30.05,North,-999,0.0,0.0,-999,0.00,,,-99.99,WeatherLink 5.5,2013-05-25 05:25:00,
2013-05-25 01:30:00,77.6,-99.9,30.05,North,-999,0.0,0.0,-999,0.01,,,-99.99,WeatherLink 5.5,2013-05-25 05:30:00,
2013-05-25 01:40:00,77.5,-99.9,30.05,North,-999,0.0,0.0,-999,0.01,,,-99.99,WeatherLink 5.5,2013-05-25 05:40:00,
2013-05-25 01:50:00,77.3,-99.9,30.04,North,-999,0.0,0.0,-999,0.01,,,-99.99,WeatherLink 5.5,2013-05-25 05:50:00,
2013-05-25 02:00:00,76.9,-99.9,30.04,North,-999,0.0,0.0,-999,0.01,,,-99.99,WeatherLink 5.5,2013-05-25 06:00:00,
2013-05-25 02:05:00,76.8,-99.9,30.03,North,-999,0.0,0.0,-999,0.01,,,-99.99,WeatherLink 5.5,2013-05-25 06:05:00,
2013-05-25 02:15:00,76.8,-99.9,30.03,North,-999,0.0,0.0,-999,0.01,,,-99.99,WeatherLink 5.5,2013-05-25 06:15:00,
2013-05-25 02:20:00,76.8,-99.9,30.03,North,-999,0.0,0.0,-999,0.01,,,-99.99,WeatherLink 5.5,2013-05-25 06:20:00,
2013-05-25 02:30:00,76.8,-99.9,30.03,North,-999,0.0,0.0,-999,0.00,,,-99.99,WeatherLink 5.5,2013-05-25 06:30:00,
2013-05-25 02:40:00,76.7,-99.9,30.03,North,-999,0.0,0.0,-999,0.00,,,-99.99,WeatherLink 5.5,2013-05-25 06:40:00,
2013-05-25 02:45:00,76.7,-99.9,30.03,North,-999,0.0,0.0,-999,0.00,,,-99.99,WeatherLink 5.5,2013-05-25 06:45:00,
2013-05-25 02:55:00,76.6,-99.9,30.03,North,-999,0.0,0.0,-999,0.00,,,-99.99,WeatherLink 5.5,2013-05-25 06:55:00,
2013-05-25 03:05:00,76.5,-99.9,30.03,North,-999,0.0,0.0,-999,0.00,,,-99.99,WeatherLink 5.5,2013-05-25 07:05:00,
2013-05-25 03:15:00,76.4,-99.9,30.03,North,-999,0.0,0.0,-999,0.00,,,-99.99,WeatherLink 5.5,2013-05-25 07:15:00,
2013-05-25 03:25:00,76.2,-99.9,30.03,North,-999,0.0,0.0,-999,0.00,,,-99.99,WeatherLink 5.5,2013-05-25 07:25:00,
2013-05-25 03:30:00,76.1,-99.9,30.03,North,-999,0.0,0.0,-999,0.00,,,-99.99,WeatherLink 5.5,2013-05-25 07:30:00,
2013-05-25 03:40:00,75.9,-99.9,30.03,North,-999,0.0,0.0,-999,0.00,,,-99.99,WeatherLink 5.5,2013-05-25 07:40:00,
2013-05-25 03:45:00,75.6,-99.9,30.03,North,-999,0.0,0.0,-999,0.00,,,-99.99,WeatherLink 5.5,2013-05-25 07:45:00,
2013-05-25 03:55:00,75.5,-99.9,30.02,North,-999,0.0,0.0,-999,0.00,,,-99.99,WeatherLink 5.5,2013-05-25 07:55:00,
2013-05-25 04:05:00,75.5,69.3,30.02,North,-999,0.0,0.0,81,0.00,,,-99.99,WeatherLink 5.5,2013-05-25 08:05:00,
2013-05-25 04:10:00,75.5,-99.9,30.02,North,-999,0.0,0.0,-999,0.00,,,-99.99,WeatherLink 5.5,2013-05-25 08:10:00,
2013-05-25 04:20:00,75.5,-99.9,30.03,West,270,0.0,1.0,-999,0.00,,,-99.99,WeatherLink 5.5,2013-05-25 08:20:00,
2013-05-25 04:30:00,75.7,-99.9,30.02,North,-999,0.0,0.0,-999,0.00,,,-99.99,WeatherLink 5.5,2013-05-25 08:30:00,
2013-05-25 04:35:00,75.6,-99.9,30.03,North,-999,0.0,0.0,-999,0.00,,,-99.99,WeatherLink 5.5,2013-05-25 08:35:00,
2013-05-25 04:45:00,75.4,-99.9,30.02,North,-999,0.0,0.0,-999,0.00,,,-99.99,WeatherLink 5.5,2013-05-25 08:45:00,
2013-05-25 04:55:00,75.3,-99.9,30.03,West,270,0.0,3.0,-999,0.00,,,-99.99,WeatherLink 5.5,2013-05-25 08:55:00,
2013-05-25 05:00:00,75.1,-99.9,30.02,West,270,0.0,4.0,-999,0.00,,,-99.99,WeatherLink 5.5,2013-05-25 09:00:00,
2013-05-25 05:10:00,74.5,-99.9,30.03,North,-999,0.0,0.0,-999,0.00,,,-99.99,WeatherLink 5.5,2013-05-25 09:10:00,
2013-05-25 05:20:00,74.1,-99.9,30.03,North,-999,0.0,0.0,-999,0.00,,,-99.99,WeatherLink 5.5,2013-05-25 09:20:00,
2013-05-25 05:25:00,74.1,-99.9,30.03,North,-999,0.0,0.0,-999,0.00,,,-99.99,WeatherLink 5.5,2013-05-25 09:25:00,
2013-05-25 05:35:00,74.1,-99.9,30.03,West,270,1.0,5.0,-999,0.00,,,-99.99,WeatherLink 5.5,2013-05-25 09:35:00,
2013-05-25 05:45:00,74.3,-99.9,30.04,North,0,0.0,3.0,-999,0.00,,,-99.99,WeatherLink 5.5,2013-05-25 09:45:00,
2013-05-25 05:55:00,74.4,-99.9,30.04,NNE,22,2.0,8.0,-999,0.00,,,-99.99,WeatherLink 5.5,2013-05-25 09:55:00,
2013-05-25 06:05:00,74.7,-99.9,30.04,NNE,22,0.0,4.0,-999,0.00,,,-99.99,WeatherLink 5.5,2013-05-25 10:05:00,
2013-05-25 06:10:00,74.8,-99.9,30.04,NNE,22,0.0,3.0,-999,0.00,,,-99.99,WeatherLink 5.5,2013-05-25 10:10:00,
2013-05-25 06:20:00,74.8,68.6,30.05,NNE,22,0.0,3.0,81,0.00,,,-99.99,WeatherLink 5.5,2013-05-25 10:20:00,
2013-05-25 06:30:00,74.8,-99.9,30.05,NNE,22,0.0,1.0,-999,0.00,,,-99.99,WeatherLink 5.5,2013-05-25 10:30:00,
2013-05-25 06:35:00,74.9,68.7,30.05,NNE,22,1.0,7.0,81,0.00,,,-99.99,WeatherLink 5.5,2013-05-25 10:35:00,
2013-05-25 06:45:00,75.1,-99.9,30.05,NNE,22,1.0,7.0,-999,0.00,,,-99.99,WeatherLink 5.5,2013-05-25 10:45:00,
2013-05-25 06:55:00,75.3,-99.9,30.05,NE,45,1.0,6.0,-999,0.00,,,-99.99,WeatherLink 5.5,2013-05-25 10:55:00,
2013-05-25 07:05:00,75.6,-99.9,30.05,ENE,67,1.0,7.0,-999,0.00,,,-99.99,WeatherLink 5.5,2013-05-25 11:05:00,
2013-05-25 07:10:00,75.8,-99.9,30.05,ENE,67,3.0,8.0,-999,0.00,,,-99.99,WeatherLink 5.5,2013-05-25 11:10:00,
2013-05-25 07:20:00,76.3,-99.9,30.06,NE,45,1.0,6.0,-999,0.00,,,-99.99,WeatherLink 5.5,2013-05-25 11:20:00,
2013-05-25 07:30:00,76.6,-99.9,30.06,NE,45,1.0,6.0,-999,0.00,,,-99.99,WeatherLink 5.5,2013-05-25 11:30:00,
2013-05-25 07:40:00,77.2,-99.9,30.08,NE,45,1.0,5.0,-999,0.00,,,-99.99,WeatherLink 5.5,2013-05-25 11:40:00,
2013-05-25 07:45:00,77.5,-99.9,30.08,NE,45,1.0,8.0,-999,0.00,,,-99.99,WeatherLink 5.5,2013-05-25 11:45:00,
2013-05-25 07:55:00,78.3,-99.9,30.08,NE,45,3.0,10.0,-999,0.00,,,-99.99,WeatherLink 5.5,2013-05-25 11:55:00,
2013-05-25 08:00:00,78.7,78.7,30.08,NE,45,1.0,6.0,100,0.00,,,-99.99,WeatherLink 5.5,2013-05-25 12:00:00,
2013-05-25 08:10:00,79.3,79.3,30.07,NE,45,3.0,13.0,100,0.00,,,-99.99,WeatherLink 5.5,2013-05-25 12:10:00,
2013-05-25 08:20:00,79.8,10.2,30.08,NE,45,2.0,8.0,7,0.00,,,-99.99,WeatherLink 5.5,2013-05-25 12:20:00,
2013-05-25 08:30:00,80.4,-99.9,30.09,NE,45,3.0,12.0,0,0.00,,,-99.99,WeatherLink 5.5,2013-05-25 12:30:00,
2013-05-25 08:35:00,80.7,80.7,30.09,NE,45,1.0,7.0,100,0.00,,,-99.99,WeatherLink 5.5,2013-05-25 12:35:00,
2013-05-25 08:45:00,81.2,81.2,30.09,NE,45,5.0,14.0,100,0.00,,,-99.99,WeatherLink 5.5,2013-05-25 12:45:00,
2013-05-25 08:55:00,81.4,81.4,30.10,NNE,22,6.0,15.0,100,0.00,,,-99.99,WeatherLink 5.5,2013-05-25 12:55:00,
2013-05-25 09:05:00,81.6,81.6,30.10,NNE,22,6.0,14.0,100,0.00,,,-99.99,WeatherLink 5.5,2013-05-25 13:05:00,
2013-05-25 09:10:00,81.7,81.7,30.10,NE,45,7.0,15.0,100,0.00,,,-99.99,WeatherLink 5.5,2013-05-25 13:10:00,
2013-05-25 09:20:00,82.1,82.1,30.11,NE,45,6.0,15.0,100,0.00,,,-99.99,WeatherLink 5.5,2013-05-25 13:20:00,
2013-05-25 09:25:00,82.2,82.2,30.11,NE,45,4.0,14.0,100,0.00,,,-99.99,WeatherLink 5.5,2013-05-25 13:25:00,
2013-05-25 09:35:00,82.9,82.9,30.12,NNE,22,4.0,14.0,100,0.00,,,-99.99,WeatherLink 5.5,2013-05-25 13:35:00,
2013-05-25 09:40:00,83.1,83.1,30.12,NE,45,3.0,11.0,100,0.00,,,-99.99,WeatherLink 5.5,2013-05-25 13:40:00,
2013-05-25 09:50:00,83.1,83.1,30.11,NE,45,6.0,13.0,100,0.00,,,-99.99,WeatherLink 5.5,2013-05-25 13:50:00,
2013-05-25 10:00:00,83.1,83.1,30.12,NE,45,7.0,15.0,100,0.00,,,-99.99,WeatherLink 5.5,2013-05-25 14:00:00,
2013-05-25 10:10:00,83.7,83.7,30.12,NE,45,2.0,10.0,100,0.00,,,-99.99,WeatherLink 5.5,2013-05-25 14:10:00,
2013-05-25 10:20:00,84.1,84.1,30.13,NE,45,4.0,12.0,100,0.00,,,-99.99,WeatherLink 5.5,2013-05-25 14:20:00,
2013-05-25 10:30:00,84.2,84.2,30.13,NE,45,6.0,13.0,100,0.00,,,-99.99,WeatherLink 5.5,2013-05-25 14:30:00,
2013-05-25 10:35:00,84.0,84.0,30.13,NE,45,5.0,14.0,100,0.00,,,-99.99,WeatherLink 5.5,2013-05-25 14:35:00,
2013-05-25 10:45:00,83.7,83.7,30.14,NE,45,8.0,17.0,100,0.00,,,-99.99,WeatherLink 5.5,2013-05-25 14:45:00,
2013-05-25 10:55:00,83.6,83.3,30.14,NNE,22,7.0,14.0,99,0.00,,,-99.99,WeatherLink 5.5,2013-05-25 14:55:00,
2013-05-25 11:05:00,83.6,83.0,30.14,NE,45,7.0,14.0,98,0.00,,,-99.99,WeatherLink 5.5,2013-05-25 15:05:00,
2013-05-25 11:15:00,83.7,82.8,30.14,NNE,22,6.0,14.0,97,0.00,,,-99.99,WeatherLink 5.5,2013-05-25 15:15:00,
2013-05-25 11:25:00,84.1,82.5,30.14,NNE,22,7.0,18.0,95,0.00,,,-99.99,WeatherLink 5.5,2013-05-25 15:25:00,
2013-05-25 11:35:00,84.2,81.6,30.14,NE,45,7.0,16.0,92,0.00,,,-99.99,WeatherLink 5.5,2013-05-25 15:35:00,
2013-05-25 11:40:00,84.2,81.3,30.14,NE,45,7.0,16.0,91,0.00,,,-99.99,WeatherLink 5.5,2013-05-25 15:40:00,
2013-05-25 11:50:00,83.9,80.6,30.14,NNE,22,6.0,13.0,90,0.00,,,-99.99,WeatherLink 5.5,2013-05-25 15:50:00,
2013-05-25 12:00:00,84.6,80.6,30.15,ENE,67,6.0,15.0,88,0.00,,,-99.99,WeatherLink 5.5,2013-05-25 16:00:00,
2013-05-25 12:05:00,84.6,79.2,30.15,NNE,22,8.0,17.0,84,0.00,,,-99.99,WeatherLink 5.5,2013-05-25 16:05:00,
2013-05-25 12:15:00,84.4,79.4,30.14,NE,45,6.0,15.0,85,0.00,,,-99.99,WeatherLink 5.5,2013-05-25 16:15:00,
2013-05-25 12:20:00,84.7,79.3,30.14,NE,45,4.0,12.0,84,0.00,,,-99.99,WeatherLink 5.5,2013-05-25 16:20:00,
2013-05-25 12:30:00,85.1,77.8,30.14,NE,45,7.0,17.0,79,0.00,,,-99.99,WeatherLink 5.5,2013-05-25 16:30:00,
2013-05-25 12:40:00,85.2,79.4,30.14,NE,45,5.0,13.0,83,0.00,,,-99.99,WeatherLink 5.5,2013-05-25 16:40:00,
2013-05-25 12:50:00,85.0,78.5,30.15,NNE,22,7.0,16.0,81,0.00,,,-99.99,WeatherLink 5.5,2013-05-25 16:50:00,
2013-05-25 12:55:00,85.1,78.6,30.14,NE,45,6.0,12.0,81,0.00,,,-99.99,WeatherLink 5.5,2013-05-25 16:55:00,
2013-05-25 13:05:00,85.3,78.4,30.15,NE,45,5.0,14.0,80,0.00,,,-99.99,WeatherLink 5.5,2013-05-25 17:05:00,
2013-05-25 13:15:00,84.9,78.4,30.14,ENE,67,7.0,14.0,81,0.00,,,-99.99,WeatherLink 5.5,2013-05-25 17:15:00,
2013-05-25 13:25:00,85.5,79.4,30.14,NE,45,7.0,16.0,82,0.00,,,-99.99,WeatherLink 5.5,2013-05-25 17:25:00,
2013-05-25 13:35:00,85.4,79.6,30.14,NE,45,8.0,14.0,83,0.00,,,-99.99,WeatherLink 5.5,2013-05-25 17:35:00,
2013-05-25 13:45:00,85.3,79.5,30.14,NNE,22,6.0,13.0,83,0.00,,,-99.99,WeatherLink 5.5,2013-05-25 17:45:00,
2013-05-25 13:55:00,85.6,79.5,30.14,NNE,22,5.0,15.0,82,0.00,,,-99.99,WeatherLink 5.5,2013-05-25 17:55:00,
2013-05-25 14:00:00,85.4,80.0,30.14,NE,45,5.0,12.0,84,0.00,,,-99.99,WeatherLink 5.5,2013-05-25 18:00:00,
2013-05-25 14:10:00,86.0,79.1,30.13,NNE,22,8.0,18.0,80,0.00,,,-99.99,WeatherLink 5.5,2013-05-25 18:10:00,
2013-05-25 14:20:00,85.6,79.1,30.12,NE,45,6.0,13.0,81,0.00,,,-99.99,WeatherLink 5.5,2013-05-25 18:20:00,
2013-05-25 14:30:00,86.0,79.1,30.12,NE,45,5.0,15.0,80,0.00,,,-99.99,WeatherLink 5.5,2013-05-25 18:30:00,
2013-05-25 14:40:00,86.1,79.6,30.12,NE,45,5.0,14.0,81,0.00,,,-99.99,WeatherLink 5.5,2013-05-25 18:40:00,
2013-05-25 14:50:00,85.7,77.7,30.12,NNE,22,7.0,13.0,77,0.00,,,-99.99,WeatherLink 5.5,2013-05-25 18:50:00,
2013-05-25 14:55:00,85.5,77.1,30.12,NE,45,7.0,14.0,76,0.00,,,-99.99,WeatherLink 5.5,2013-05-25 18:55:00,
2013-05-25 15:05:00,85.3,76.5,30.11,NE,45,7.0,15.0,75,0.00,,,-99.99,WeatherLink 5.5,2013-05-25 19:05:00,
2013-05-25 15:15:00,85.6,76.8,30.11,ENE,67,5.0,14.0,75,0.00,,,-99.99,WeatherLink 5.5,2013-05-25 19:15:00,
2013-05-25 15:25:00,85.5,76.3,30.11,NE,45,5.0,12.0,74,0.00,,,-99.99,WeatherLink 5.5,2013-05-25 19:25:00,
2013-05-25 15:35:00,85.7,73.5,30.11,NE,45,7.0,18.0,67,0.00,,,-99.99,WeatherLink 5.5,2013-05-25 19:35:00,
2013-05-25 15:45:00,85.7,73.5,30.10,NE,45,6.0,17.0,67,0.00,,,-99.99,WeatherLink 5.5,2013-05-25 19:45:00,
2013-05-25 15:55:00,85.1,72.9,30.10,NE,45,4.0,14.0,67,0.00,,,-99.99,WeatherLink 5.5,2013-05-25 19:55:00,
2013-05-25 16:05:00,85.5,73.3,30.11,NE,45,5.0,14.0,67,0.00,,,-99.99,WeatherLink 5.5,2013-05-25 20:05:00,
2013-05-25 16:10:00,85.6,73.4,30.10,NE,45,6.0,16.0,67,0.00,,,-99.99,WeatherLink 5.5,2013-05-25 20:10:00,
2013-05-25 16:20:00,85.8,71.7,30.10,NNE,22,7.0,14.0,63,0.00,,,-99.99,WeatherLink 5.5,2013-05-25 20:20:00,
2013-05-25 16:25:00,85.4,73.2,30.10,NNE,22,6.0,14.0,67,0.00,,,-99.99,WeatherLink 5.5,2013-05-25 20:25:00,
2013-05-25 16:35:00,85.3,73.1,30.10,NE,45,3.0,10.0,67,0.00,,,-99.99,WeatherLink 5.5,2013-05-25 20:35:00,
2013-05-25 16:45:00,84.8,70.8,30.10,NE,45,6.0,15.0,63,0.00,,,-99.99,WeatherLink 5.5,2013-05-25 20:45:00,
2013-05-25 16:55:00,84.4,72.2,30.09,NNE,22,7.0,17.0,67,0.00,,,-99.99,WeatherLink 5.5,2013-05-25 20:55:00,
2013-05-25 17:05:00,84.2,71.6,30.09,NE,45,6.0,12.0,66,0.00,,,-99.99,WeatherLink 5.5,2013-05-25 21:05:00,
2013-05-25 17:15:00,84.3,72.1,30.09,ENE,67,4.0,10.0,67,0.00,,,-99.99,WeatherLink 5.5,2013-05-25 21:15:00,
2013-05-25 17:25:00,84.0,71.9,30.09,ENE,67,5.0,15.0,67,0.00,,,-99.99,WeatherLink 5.5,2013-05-25 21:25:00,
2013-05-25 17:35:00,83.4,72.2,30.09,NE,45,5.0,14.0,69,0.00,,,-99.99,WeatherLink 5.5,2013-05-25 21:35:00,
2013-05-25 17:40:00,83.3,72.5,30.09,NE,45,5.0,15.0,70,0.00,,,-99.99,WeatherLink 5.5,2013-05-25 21:40:00,
2013-05-25 17:50:00,82.9,73.4,30.09,ENE,67,7.0,14.0,73,0.00,,,-99.99,WeatherLink 5.5,2013-05-25 21:50:00,
2013-05-25 18:00:00,82.3,75.1,30.08,NE,45,4.0,13.0,79,0.00,,,-99.99,WeatherLink 5.5,2013-05-25 22:00:00,
2013-05-25 18:05:00,82.5,76.4,30.09,NE,45,5.0,15.0,82,0.00,,,-99.99,WeatherLink 5.5,2013-05-25 22:05:00,
2013-05-25 18:15:00,81.8,77.9,30.09,NNE,22,5.0,11.0,88,0.00,,,-99.99,WeatherLink 5.5,2013-05-25 22:15:00,
2013-05-25 18:20:00,81.6,78.0,30.09,NE,45,4.0,11.0,89,0.00,,,-99.99,WeatherLink 5.5,2013-05-25 22:20:00,
2013-05-25 18:30:00,81.0,78.1,30.08,NNE,22,8.0,17.0,91,0.00,,,-99.99,WeatherLink 5.5,2013-05-25 22:30:00,
2013-05-25 18:40:00,80.4,78.2,30.09,NE,45,6.0,14.0,93,0.00,,,-99.99,WeatherLink 5.5,2013-05-25 22:40:00,
2013-05-25 18:45:00,80.7,78.8,30.09,NNE,22,6.0,13.0,94,0.00,,,-99.99,WeatherLink 5.5,2013-05-25 22:45:00,
2013-05-25 18:55:00,80.5,78.3,30.09,NNE,22,6.0,16.0,93,0.00,,,-99.99,WeatherLink 5.5,2013-05-25 22:55:00,
2013-05-25 19:00:00,80.5,78.3,30.09,NE,45,4.0,11.0,93,0.00,,,-99.99,WeatherLink 5.5,2013-05-25 23:00:00,
2013-05-25 19:05:00,80.6,79.0,30.09,NE,45,4.0,11.0,95,0.00,,,-99.99,WeatherLink 5.5,2013-05-25 23:05:00,
2013-05-25 19:15:00,80.5,78.9,30.09,ENE,67,5.0,14.0,95,0.00,,,-99.99,WeatherLink 5.5,2013-05-25 23:15:00,
2013-05-25 19:20:00,80.2,78.6,30.09,NNE,22,5.0,11.0,95,0.00,,,-99.99,WeatherLink 5.5,2013-05-25 23:20:00,
2013-05-25 19:30:00,80.0,79.1,30.09,NE,45,4.0,12.0,97,0.00,,,-99.99,WeatherLink 5.5,2013-05-25 23:30:00,
2013-05-25 19:40:00,79.7,79.7,30.09,NNE,22,3.0,12.0,100,0.00,,,-99.99,WeatherLink 5.5,2013-05-25 23:40:00,
2013-05-25 19:50:00,79.4,79.4,30.09,NE,45,4.0,12.0,100,0.00,,,-99.99,WeatherLink 5.5,2013-05-25 23:50:00,
2013-05-25 20:00:00,79.4,79.4,30.09,ENE,67,4.0,12.0,100,0.00,,,-99.99,WeatherLink 5.5,2013-05-26 00:00:00,
2013-05-25 20:10:00,79.0,79.0,30.09,NE,45,5.0,15.0,100,0.00,,,-99.99,WeatherLink 5.5,2013-05-26 00:10:00,
2013-05-25 20:20:00,78.6,78.6,30.10,NE,45,5.0,11.0,100,0.00,,,-99.99,WeatherLink 5.5,2013-05-26 00:20:00,
2013-05-25 20:25:00,78.5,78.5,30.10,NNE,22,5.0,14.0,100,0.00,,,-99.99,WeatherLink 5.5,2013-05-26 00:25:00,
2013-05-25 20:35:00,78.3,78.3,30.11,NNE,22,4.0,12.0,100,0.00,,,-99.99,WeatherLink 5.5,2013-05-26 00:35:00,
2013-05-25 20:40:00,78.2,78.2,30.10,NNE,22,7.0,16.0,100,0.00,,,-99.99,WeatherLink 5.5,2013-05-26 00:40:00,
2013-05-25 20:50:00,78.1,78.1,30.11,NE,45,6.0,13.0,100,0.00,,,-99.99,WeatherLink 5.5,2013-05-26 00:50:00,
2013-05-25 20:55:00,78.0,78.0,30.11,NE,45,4.0,11.0,100,0.00,,,-99.99,WeatherLink 5.5,2013-05-26 00:55:00,
2013-05-25 21:05:00,77.9,77.9,30.12,NE,45,5.0,11.0,100,0.00,,,-99.99,WeatherLink 5.5,2013-05-26 01:05:00,
2013-05-25 21:10:00,77.9,77.9,30.12,NE,45,3.0,11.0,100,0.00,,,-99.99,WeatherLink 5.5,2013-05-26 01:10:00,
2013-05-25 21:20:00,77.7,77.7,30.12,NE,45,3.0,11.0,100,0.00,,,-99.99,WeatherLink 5.5,2013-05-26 01:20:00,
2013-05-25 21:25:00,77.6,77.6,30.12,NNE,22,3.0,10.0,100,0.00,,,-99.99,WeatherLink 5.5,2013-05-26 01:25:00,
2013-05-25 21:35:00,77.6,77.6,30.12,NE,45,2.0,8.0,100,0.00,,,-99.99,WeatherLink 5.5,2013-05-26 01:35:00,
2013-05-25 21:40:00,77.5,77.5,30.13,NE,45,1.0,6.0,100,0.00,,,-99.99,WeatherLink 5.5,2013-05-26 01:40:00,
2013-05-25 21:50:00,77.5,77.5,30.13,NE,45,2.0,9.0,100,0.00,,,-99.99,WeatherLink 5.5,2013-05-26 01:50:00,
2013-05-25 21:55:00,77.4,77.4,30.13,NNE,22,2.0,8.0,100,0.00,,,-99.99,WeatherLink 5.5,2013-05-26 01:55:00,
2013-05-25 22:05:00,77.4,77.4,30.13,NE,45,3.0,11.0,100,0.00,,,-99.99,WeatherLink 5.5,2013-05-26 02:05:00,
2013-05-25 22:10:00,77.3,77.3,30.13,NE,45,3.0,11.0,100,0.00,,,-99.99,WeatherLink 5.5,2013-05-26 02:10:00,
2013-05-25 22:20:00,77.3,77.3,30.13,NE,45,2.0,8.0,100,0.00,,,-99.99,WeatherLink 5.5,2013-05-26 02:20:00,
2013-05-25 22:25:00,77.2,77.2,30.13,NE,45,2.0,8.0,100,0.00,,,-99.99,WeatherLink 5.5,2013-05-26 02:25:00,
2013-05-25 22:35:00,77.1,77.1,30.14,ENE,67,3.0,8.0,100,0.00,,,-99.99,WeatherLink 5.5,2013-05-26 02:35:00,
2013-05-25 22:45:00,77.0,77.0,30.13,NE,45,2.0,8.0,100,0.00,,,-99.99,WeatherLink 5.5,2013-05-26 02:45:00,
2013-05-25 22:50:00,76.9,-99.9,30.14,ENE,67,2.0,8.0,-999,0.00,,,-99.99,WeatherLink 5.5,2013-05-26 02:50:00,
2013-05-25 23:00:00,76.8,-99.9,30.14,NNE,22,1.0,9.0,-999,0.00,,,-99.99,WeatherLink 5.5,2013-05-26 03:00:00,
2013-05-25 23:10:00,76.7,76.7,30.14,NE,45,2.0,7.0,100,0.00,,,-99.99,WeatherLink 5.5,2013-05-26 03:10:00,
2013-05-25 23:20:00,76.8,-99.9,30.15,NE,45,1.0,5.0,-999,0.00,,,-99.99,WeatherLink 5.5,2013-05-26 03:20:00,
2013-05-25 23:26:00,76.7,76.7,30.15,NE,45,1.0,7.0,100,0.00,,,-99.99,WeatherLink 5.5,2013-05-26 03:26:00,
2013-05-25 23:35:00,76.4,-99.9,30.14,NE,45,1.0,8.0,-999,0.00,,,-99.99,WeatherLink 5.5,2013-05-26 03:35:00,
2013-05-25 23:45:00,76.5,76.5,30.14,NE,45,1.0,6.0,100,0.00,,,-99.99,WeatherLink 5.5,2013-05-26 03:45:00,
2013-05-25 23:50:00,76.5,76.5,30.14,NE,45,0.0,5.0,100,0.00,,,-99.99,WeatherLink 5.5,2013-05-26 03:50:00,